Aviation Digital Data Service (ADDS)

Output produced by METARs form (0643 UTC 02 September 2014)
found at http://aviationweather.gov/adds/metars/
 
KAEX 020520Z 0206/0306 14005KT P6SM FEW025 SCT250 
     FM020900 00000KT 5SM BR FEW012 
     FM021400 15006KT P6SM BKN020 
     FM021600 17008KT P6SM SCT035 
     FM021900 17009KT P6SM VCSH SCT030 BKN050 
     PROB30 0220/0224 3SM SHRA BKN030 
     FM030100 15005KT P6SM FEW060 BKN200